createdAt,value
2019-02-05T00:02:17.304Z,97156.03
2019-02-05T00:04:51.073Z,97159.34
2019-02-05T00:07:22.281Z,97157.34
2019-02-05T00:09:55.630Z,97158.16
2019-02-05T00:12:26.963Z,97154.45
2019-02-05T00:14:58.516Z,97148.16
2019-02-05T00:17:31.131Z,97146.89
2019-02-05T00:20:03.221Z,97150.16
2019-02-05T00:22:34.446Z,97151.06
2019-02-05T00:25:06.092Z,97149.00
2019-02-05T00:27:40.014Z,97143.56
2019-02-05T00:30:13.445Z,97142.77
2019-02-05T00:32:47.235Z,97138.62
2019-02-05T00:35:23.034Z,97135.72
2019-02-05T00:37:55.134Z,97132.83
2019-02-05T00:40:26.357Z,97133.26
2019-02-05T00:42:57.584Z,97135.30
2019-02-05T00:45:31.441Z,97132.82
2019-02-05T00:48:05.641Z,97134.09
2019-02-05T00:50:37.193Z,97133.73
2019-02-05T00:53:09.254Z,97127.86
2019-02-05T00:55:43.190Z,97128.72
2019-02-05T00:58:17.675Z,97127.06
2019-02-05T01:00:50.502Z,97127.47
2019-02-05T01:03:22.092Z,97129.97
2019-02-05T01:05:56.252Z,97128.79
2019-02-05T01:08:28.233Z,97125.84
2019-02-05T01:11:01.223Z,97122.52
2019-02-05T01:13:34.291Z,97130.02
2019-02-05T01:16:08.339Z,97125.08
2019-02-05T01:18:42.232Z,97119.67
2019-02-05T01:21:16.320Z,97118.44
2019-02-05T01:23:47.512Z,97118.43
2019-02-05T01:26:29.344Z,97117.17
2019-02-05T01:28:58.392Z,97116.80
2019-02-05T01:31:31.228Z,97120.58
2019-02-05T01:34:05.498Z,97118.88
2019-02-05T01:36:39.050Z,97110.13
2019-02-05T01:39:10.298Z,97112.70
2019-02-05T01:41:45.569Z,97106.88
2019-02-05T01:44:18.882Z,97098.88
2019-02-05T01:46:53.339Z,97099.42
2019-02-05T01:49:26.538Z,97099.84
2019-02-05T01:52:01.504Z,97096.09
2019-02-05T01:54:36.268Z,97093.93
2019-02-05T01:57:08.281Z,97088.98
2019-02-05T01:59:41.438Z,97088.09
2019-02-05T02:02:15.464Z,97089.84
2019-02-05T02:04:47.614Z,97085.67
2019-02-05T02:07:20.569Z,97087.30
2019-02-05T02:09:54.520Z,97079.80
2019-02-05T02:12:28.498Z,97079.41
2019-02-05T02:14:59.741Z,97077.73
2019-02-05T02:17:31.422Z,97081.08
2019-02-05T02:20:07.917Z,97076.09
2019-02-05T02:22:39.445Z,97073.59
2019-02-05T02:25:12.607Z,97069.85
2019-02-05T02:27:45.981Z,97066.60
2019-02-05T02:30:32.329Z,97069.05
2019-02-05T02:33:06.167Z,97064.54
2019-02-05T02:35:40.004Z,97070.40
2019-02-05T02:38:13.649Z,97071.19
2019-02-05T02:40:47.731Z,97070.39
2019-02-05T02:43:21.736Z,97076.66
2019-02-05T02:45:55.753Z,97065.84
2019-02-05T02:48:31.805Z,97064.55
2019-02-05T02:51:03.912Z,97067.48
2019-02-05T02:53:37.901Z,97066.23
2019-02-05T02:56:10.953Z,97061.22
2019-02-05T02:58:44.050Z,97060.80
2019-02-05T03:01:15.951Z,97052.47
2019-02-05T03:03:47.146Z,97054.98
2019-02-05T03:06:20.721Z,97059.91
2019-02-05T03:08:54.711Z,97050.41
2019-02-05T03:11:30.264Z,97047.95
2019-02-05T03:14:02.820Z,97050.73
2019-02-05T03:16:35.011Z,97056.66
2019-02-05T03:19:07.007Z,97057.14
2019-02-05T03:21:38.548Z,97056.34
2019-02-05T03:24:11.949Z,97059.23
2019-02-05T03:26:45.859Z,97049.21
2019-02-05T03:29:18.050Z,97053.77
2019-02-05T03:31:51.111Z,97052.91
2019-02-05T03:34:24.887Z,97054.20
2019-02-05T03:36:58.853Z,97058.38
2019-02-05T03:39:30.041Z,97058.81
2019-02-05T03:42:03.958Z,97057.97
2019-02-05T03:44:38.102Z,97059.23
2019-02-05T03:47:12.458Z,97056.28
2019-02-05T03:49:46.152Z,97057.91
2019-02-05T03:52:21.356Z,97053.78
2019-02-05T03:55:46.547Z,97064.70
2019-02-05T03:58:45.793Z,97055.52
2019-02-05T04:01:58.319Z,97057.20
2019-02-05T04:05:09.823Z,97058.84
2019-02-05T04:08:32.088Z,97059.69
2019-02-05T04:12:16.478Z,97055.58
2019-02-05T04:15:30.589Z,97053.48
2019-02-05T04:18:43.002Z,97054.75
2019-02-05T04:21:48.444Z,97052.33
2019-02-05T04:25:20.960Z,97048.16
2019-02-05T04:28:23.128Z,97049.00
2019-02-05T04:31:30.625Z,97052.73
2019-02-05T04:34:20.804Z,97051.54
2019-02-05T04:37:15.810Z,97058.58
2019-02-05T04:40:27.534Z,97054.86
2019-02-05T04:43:47.113Z,97052.35
2019-02-05T04:47:07.956Z,97052.74
2019-02-05T04:50:28.590Z,97059.77
2019-02-05T04:53:48.097Z,97061.91
2019-02-05T04:56:48.343Z,97069.78
2019-02-05T05:00:16.886Z,97071.45
2019-02-05T05:03:42.297Z,97073.94
2019-02-05T05:06:35.553Z,97066.02
2019-02-05T05:09:30.775Z,97072.31
2019-02-05T05:12:02.441Z,97077.33
2019-02-05T05:14:35.451Z,97075.25
2019-02-05T05:17:06.819Z,97082.33
2019-02-05T05:19:38.192Z,97077.78
2019-02-05T05:22:13.023Z,97079.03
2019-02-05T05:24:45.390Z,97084.81
2019-02-05T05:27:21.157Z,97081.11
2019-02-05T05:29:54.401Z,97082.77
2019-02-05T05:32:28.980Z,97081.94
2019-02-05T05:35:02.391Z,97081.92
2019-02-05T05:37:34.481Z,97078.61
2019-02-05T05:40:08.750Z,97079.45
2019-02-05T05:42:44.109Z,97083.61
2019-02-05T05:45:17.407Z,97081.92
2019-02-05T05:47:50.190Z,97086.91
2019-02-05T05:50:23.534Z,97089.42
2019-02-05T05:52:58.332Z,97087.77
2019-02-05T05:55:31.652Z,97093.19
2019-02-05T05:58:06.427Z,97092.77
2019-02-05T06:00:37.601Z,97095.27
2019-02-05T06:03:09.652Z,97096.92
2019-02-05T06:05:41.030Z,97100.67
2019-02-05T06:08:12.591Z,97101.11
2019-02-05T06:10:43.812Z,97098.19
2019-02-05T06:13:17.583Z,97100.69
2019-02-05T06:15:51.494Z,97096.52
2019-02-05T06:18:25.456Z,97094.44
2019-02-05T06:20:58.690Z,97098.59
2019-02-05T06:23:31.538Z,97101.08
2019-02-05T06:26:03.674Z,97108.56
2019-02-05T06:28:35.491Z,97113.14
2019-02-05T06:31:11.291Z,97108.58
2019-02-05T06:33:42.704Z,97112.75
2019-02-05T06:36:16.748Z,97116.05
2019-02-05T06:38:54.576Z,97119.80
2019-02-05T06:41:27.841Z,97114.81
2019-02-05T06:44:02.525Z,97123.53
2019-02-05T06:46:34.913Z,97130.63
2019-02-05T06:49:06.837Z,97121.05
2019-02-05T06:51:40.847Z,97127.72
2019-02-05T06:54:13.855Z,97136.03
2019-02-05T06:56:45.790Z,97140.64
2019-02-05T06:59:18.021Z,97135.22
2019-02-05T07:01:53.302Z,97140.62
2019-02-05T07:04:26.450Z,97124.80
2019-02-05T07:06:58.918Z,97130.19
2019-02-05T07:09:31.450Z,97121.46
2019-02-05T07:12:03.633Z,97127.73
2019-02-05T07:14:35.263Z,97134.80
2019-02-05T07:17:06.834Z,97131.48
2019-02-05T07:19:39.226Z,97132.70
2019-02-05T07:22:12.048Z,97131.88
2019-02-05T07:24:43.929Z,97137.70
2019-02-05T07:27:19.395Z,97140.22
2019-02-05T07:29:51.969Z,97137.30
2019-02-05T07:32:25.941Z,97139.38
2019-02-05T07:35:01.396Z,97137.70
2019-02-05T07:37:34.975Z,97138.94
2019-02-05T07:40:10.088Z,97142.67
2019-02-05T07:42:44.016Z,97145.95
2019-02-05T07:45:19.139Z,97144.70
2019-02-05T07:47:53.063Z,97142.20
2019-02-05T07:50:26.638Z,97143.40
2019-02-05T07:53:00.171Z,97144.16
2019-02-05T07:55:31.657Z,97144.07
2019-02-05T07:58:04.990Z,97142.00
2019-02-05T08:00:38.087Z,97139.80
2019-02-05T08:03:15.361Z,97141.39
2019-02-05T08:05:47.184Z,97137.14
2019-02-05T08:08:21.153Z,97137.13
2019-02-05T08:10:55.276Z,97134.07
2019-02-05T08:13:30.806Z,97136.48
2019-02-05T08:16:03.213Z,97142.59
2019-02-05T08:18:35.133Z,97145.73
2019-02-05T08:21:08.267Z,97145.95
2019-02-05T08:23:42.340Z,97150.42
2019-02-05T08:26:14.331Z,97155.29
2019-02-05T08:28:52.362Z,97149.29
2019-02-05T08:31:24.140Z,97150.20
2019-02-05T08:33:58.267Z,97154.08
2019-02-05T08:36:31.573Z,97151.22
2019-02-05T08:39:08.912Z,97154.17
2019-02-05T08:41:41.886Z,97161.36
2019-02-05T08:44:16.059Z,97162.53
2019-02-05T08:46:47.361Z,97155.69
2019-02-05T08:49:23.346Z,97151.27
2019-02-05T08:51:57.950Z,97144.67
2019-02-05T08:54:29.709Z,97146.66
2019-02-05T08:57:03.364Z,97148.55
2019-02-05T08:59:35.607Z,97150.44
2019-02-05T09:02:09.780Z,97150.98
2019-02-05T09:04:42.641Z,97150.90
2019-02-05T09:07:16.350Z,97155.81
2019-02-05T09:09:50.357Z,97158.73
2019-02-05T09:12:21.924Z,97163.96
2019-02-05T09:14:53.165Z,97165.08
2019-02-05T09:17:26.475Z,97168.35
2019-02-05T09:20:02.265Z,97165.97
2019-02-05T09:22:35.283Z,97162.55
2019-02-05T09:25:09.532Z,97164.33
2019-02-05T09:27:41.472Z,97160.93
2019-02-05T09:30:18.738Z,97155.86
2019-02-05T09:32:51.236Z,97153.20
2019-02-05T09:35:24.535Z,97152.06
2019-02-05T09:37:57.902Z,97165.05
2019-02-05T09:40:31.324Z,97160.33
2019-02-05T09:43:04.887Z,97160.53
2019-02-05T09:45:37.708Z,97167.96
2019-02-05T09:48:13.178Z,97173.00
2019-02-05T09:50:45.652Z,97170.27
2019-02-05T09:53:19.791Z,97174.58
2019-02-05T09:55:54.862Z,97176.36
2019-02-05T09:58:26.532Z,97181.58
2019-02-05T10:01:02.373Z,97175.94
2019-02-05T10:03:37.219Z,97176.31
2019-02-05T10:06:08.629Z,97169.45
2019-02-05T10:08:40.639Z,97172.19
2019-02-05T10:11:13.841Z,97175.73
2019-02-05T10:13:49.547Z,97168.49
2019-02-05T10:16:21.897Z,97163.61
2019-02-05T10:18:57.419Z,97156.26
2019-02-05T10:21:30.912Z,97165.42
2019-02-05T10:24:03.662Z,97162.72
2019-02-05T10:26:39.298Z,97171.67
2019-02-05T10:29:11.814Z,97172.50
2019-02-05T10:31:43.052Z,97163.43
2019-02-05T10:34:15.715Z,97151.48
2019-02-05T10:36:49.740Z,97159.03
2019-02-05T10:39:23.726Z,97148.41
2019-02-05T10:41:55.083Z,97137.14
2019-02-05T10:44:26.283Z,97133.66
2019-02-05T10:46:59.863Z,97135.21
2019-02-05T10:49:32.077Z,97126.53
2019-02-05T10:52:04.694Z,97124.04
2019-02-05T10:54:38.310Z,97119.40
2019-02-05T10:57:10.002Z,97123.01
2019-02-05T10:59:43.929Z,97121.66
2019-02-05T11:02:18.296Z,97121.95
2019-02-05T11:04:52.012Z,97120.20
2019-02-05T11:07:25.946Z,97117.27
2019-02-05T11:09:58.860Z,97114.23
2019-02-05T11:12:31.912Z,97106.90
2019-02-05T11:15:04.287Z,97110.00
2019-02-05T11:17:38.014Z,97107.78
2019-02-05T11:20:13.110Z,97103.36
2019-02-05T11:22:46.421Z,97105.70
2019-02-05T11:25:20.456Z,97100.77
2019-02-05T11:27:54.136Z,97095.97
2019-02-05T11:30:30.587Z,97098.86
2019-02-05T11:33:02.082Z,97099.50
2019-02-05T11:35:35.114Z,97093.97
2019-02-05T11:38:07.942Z,97095.40
2019-02-05T11:40:42.866Z,97088.59
2019-02-05T11:43:16.840Z,97080.56
2019-02-05T11:45:48.936Z,97087.42
2019-02-05T11:48:24.814Z,97091.13
2019-02-05T11:51:06.574Z,97084.78
2019-02-05T11:53:40.999Z,97078.37
2019-02-05T11:56:15.861Z,97080.72
2019-02-05T11:58:48.217Z,97078.98
2019-02-05T12:01:38.471Z,97078.47
2019-02-05T12:04:05.226Z,97073.41
2019-02-05T12:06:38.155Z,97076.16
2019-02-05T12:09:21.327Z,97069.39
2019-02-05T12:11:55.370Z,97062.33
2019-02-05T12:14:29.245Z,97058.47
2019-02-05T12:17:00.768Z,97059.16
2019-02-05T12:19:32.350Z,97065.13
2019-02-05T12:22:05.361Z,97059.78
2019-02-05T12:24:39.169Z,97052.51
2019-02-05T12:27:13.216Z,97050.64
2019-02-05T12:29:47.222Z,97058.42
2019-02-05T12:32:21.200Z,97048.99
2019-02-05T12:34:52.406Z,97056.59
2019-02-05T12:37:26.368Z,97052.00
2019-02-05T12:39:57.910Z,97046.25
2019-02-05T12:42:30.501Z,97054.39
2019-02-05T12:45:05.535Z,97046.91
2019-02-05T12:47:40.101Z,97043.16
2019-02-05T12:50:16.196Z,97047.91
2019-02-05T12:52:49.548Z,97051.74
2019-02-05T12:55:23.863Z,97043.06
2019-02-05T12:57:57.903Z,97044.00
2019-02-05T13:00:34.904Z,97042.67
2019-02-05T13:03:10.518Z,97037.34
2019-02-05T13:05:44.359Z,97043.31
2019-02-05T13:08:18.102Z,97036.89
2019-02-05T13:10:52.817Z,97034.38
2019-02-05T13:13:24.478Z,96750.66
2019-02-05T13:16:00.135Z,97033.73
2019-02-05T13:18:31.768Z,97040.12
2019-02-05T13:21:03.620Z,97032.50
2019-02-05T13:23:35.413Z,97022.39
2019-02-05T13:26:09.716Z,97015.98
2019-02-05T13:28:49.039Z,97017.34
2019-02-05T13:31:28.940Z,97012.38
2019-02-05T13:34:08.489Z,97023.31
2019-02-05T13:36:41.579Z,97025.53
2019-02-05T13:39:14.255Z,97014.53
2019-02-05T13:41:55.106Z,97016.61
2019-02-05T13:44:33.592Z,97017.66
2019-02-05T13:47:13.836Z,97014.91
2019-02-05T13:49:56.121Z,97020.61
2019-02-05T13:52:34.642Z,97020.33
2019-02-05T13:55:08.019Z,97019.54
2019-02-05T13:57:41.656Z,97029.69
2019-02-05T14:00:19.455Z,97025.56
2019-02-05T14:03:04.919Z,97022.92
2019-02-05T14:05:44.854Z,97027.46
2019-02-05T14:08:24.712Z,97024.05
2019-02-05T14:11:00.438Z,97016.02
2019-02-05T14:13:32.266Z,97015.37
2019-02-05T14:16:04.059Z,97013.78
2019-02-05T14:18:35.301Z,97010.80
2019-02-05T14:21:17.399Z,97012.17
2019-02-05T14:23:56.790Z,97012.55
2019-02-05T14:26:30.390Z,97001.24
2019-02-05T14:29:04.331Z,96997.70
2019-02-05T14:31:35.913Z,97004.75
2019-02-05T14:34:07.873Z,97004.47
2019-02-05T14:36:48.035Z,97006.28
2019-02-05T14:39:23.358Z,97015.77
2019-02-05T14:41:54.838Z,97019.34
2019-02-05T14:44:26.835Z,97020.08
2019-02-05T14:46:59.639Z,97027.11
2019-02-05T14:49:31.850Z,97040.31
2019-02-05T14:52:05.878Z,97038.84
2019-02-05T14:54:46.218Z,97044.38
2019-02-05T14:57:20.381Z,97037.92
2019-02-05T14:59:54.579Z,97043.72
2019-02-05T15:02:27.996Z,97041.26
2019-02-05T15:05:12.870Z,97042.81
2019-02-05T15:07:45.149Z,97055.77
2019-02-05T15:10:20.572Z,97052.23
2019-02-05T15:12:53.117Z,97063.34
2019-02-05T15:15:27.970Z,97063.86
2019-02-05T15:18:01.183Z,97075.84
2019-02-05T15:20:37.216Z,97065.27
2019-02-05T15:23:12.780Z,97065.90
2019-02-05T15:25:46.175Z,97071.58
2019-02-05T15:28:19.000Z,97074.94
2019-02-05T15:30:50.282Z,97064.36
2019-02-05T15:33:41.985Z,97063.80
2019-02-05T15:36:27.694Z,97057.02
2019-02-05T15:38:59.138Z,97061.52
2019-02-05T15:41:31.956Z,97061.70
2019-02-05T15:44:04.736Z,97067.42
2019-02-05T15:46:38.144Z,97072.13
2019-02-05T15:49:12.552Z,97076.08
2019-02-05T15:51:46.174Z,97072.62
2019-02-05T15:54:21.709Z,97073.50
2019-02-05T15:56:54.166Z,97081.95
2019-02-05T15:59:25.421Z,97076.80
2019-02-05T16:02:06.055Z,97087.23
2019-02-05T16:04:31.912Z,97083.08
2019-02-05T16:07:04.882Z,97079.69
2019-02-05T16:09:38.314Z,97080.47
2019-02-05T16:12:12.188Z,97076.94
2019-02-05T16:14:45.543Z,97073.77
2019-02-05T16:17:17.624Z,97079.87
2019-02-05T16:19:52.342Z,97080.55
2019-02-05T16:22:25.313Z,97087.76
2019-02-05T16:25:00.388Z,97083.39
2019-02-05T16:27:32.050Z,97090.59
2019-02-05T16:30:05.565Z,97096.13
2019-02-05T16:32:38.203Z,97102.09
2019-02-05T16:35:10.187Z,97095.88
2019-02-05T16:37:43.568Z,97101.12
2019-02-05T16:40:20.188Z,97106.19
2019-02-05T16:42:53.443Z,97110.13
2019-02-05T16:45:26.964Z,97111.25
2019-02-05T16:47:59.302Z,97111.35
2019-02-05T16:50:34.370Z,97113.59
2019-02-05T16:53:08.774Z,97113.30
2019-02-05T16:55:41.532Z,97118.64
2019-02-05T16:58:15.538Z,97123.34
2019-02-05T17:00:49.294Z,97124.47
2019-02-05T17:03:20.649Z,97117.03
2019-02-05T17:05:54.370Z,97116.30
2019-02-05T17:08:31.400Z,97117.45
2019-02-05T17:11:06.101Z,97116.02
2019-02-05T17:13:39.226Z,97117.75
2019-02-05T17:16:12.065Z,97123.22
2019-02-05T17:18:43.658Z,97130.92
2019-02-05T17:21:17.535Z,97124.56
2019-02-05T17:23:54.194Z,97126.77
2019-02-05T17:26:25.440Z,97128.34
2019-02-05T17:28:58.677Z,97138.83
2019-02-05T17:31:30.836Z,97140.13
2019-02-05T17:34:02.053Z,97141.02
2019-02-05T17:36:33.287Z,97141.61
2019-02-05T17:39:09.145Z,97140.63
2019-02-05T17:41:40.565Z,97139.62
2019-02-05T17:44:13.418Z,97143.72
2019-02-05T17:46:45.655Z,97139.23
2019-02-05T17:49:19.678Z,97136.45
2019-02-05T17:51:51.754Z,97145.28
2019-02-05T17:54:24.652Z,97144.48
2019-02-05T17:56:55.876Z,97139.78
2019-02-05T17:59:29.904Z,97139.86
2019-02-05T18:02:03.943Z,97137.76
2019-02-05T18:04:35.788Z,97143.22
2019-02-05T18:07:08.881Z,97140.20
2019-02-05T18:09:41.764Z,97144.98
2019-02-05T18:12:15.719Z,97148.08
2019-02-05T18:14:47.535Z,97144.64
2019-02-05T18:17:20.768Z,97144.69
2019-02-05T18:19:54.791Z,97143.08
2019-02-05T18:22:28.921Z,97150.19
2019-02-05T18:25:00.228Z,97149.73
2019-02-05T18:27:32.178Z,97144.76
2019-02-05T18:30:09.026Z,97139.38
2019-02-05T18:32:45.139Z,97146.36
2019-02-05T18:35:18.945Z,97152.52
2019-02-05T18:37:52.941Z,97154.59
2019-02-05T18:40:27.132Z,97162.39
2019-02-05T18:43:02.563Z,97159.52
2019-02-05T18:45:36.008Z,97160.91
2019-02-05T18:48:08.900Z,97157.37
2019-02-05T18:50:53.338Z,97156.50
2019-02-05T18:53:25.832Z,97169.82
2019-02-05T18:55:58.867Z,97165.53
2019-02-05T18:58:32.079Z,97161.64
2019-02-05T19:01:03.958Z,97173.89
2019-02-05T19:03:35.863Z,97174.55
2019-02-05T19:06:09.185Z,97173.38
2019-02-05T19:08:43.178Z,97179.32
2019-02-05T19:11:18.809Z,97184.33
2019-02-05T19:13:53.649Z,97181.96
2019-02-05T19:16:25.225Z,97184.72
2019-02-05T19:18:56.465Z,97181.15
2019-02-05T19:21:30.196Z,97193.23
2019-02-05T19:24:14.839Z,97193.70
2019-02-05T19:26:50.533Z,97189.72
2019-02-05T19:29:24.186Z,97193.95
2019-02-05T19:31:58.310Z,97201.64
2019-02-05T19:34:32.297Z,97200.36
2019-02-05T19:37:04.218Z,97199.07
2019-02-05T19:39:37.091Z,97199.70
2019-02-05T19:42:11.124Z,97203.31
2019-02-05T19:44:50.988Z,97204.93
2019-02-05T19:47:27.289Z,97202.27
2019-02-05T19:50:02.302Z,97204.20
2019-02-05T19:52:35.357Z,97200.15
2019-02-05T19:55:08.469Z,97206.17
2019-02-05T19:57:40.640Z,97206.49
2019-02-05T20:00:14.248Z,97207.88
2019-02-05T20:02:45.529Z,97208.52
2019-02-05T20:05:20.238Z,97207.30
2019-02-05T20:07:53.317Z,97216.11
2019-02-05T20:10:28.355Z,97210.86
2019-02-05T20:13:01.145Z,97222.11
2019-02-05T20:15:32.830Z,97210.41
2019-02-05T20:18:06.736Z,97217.19
2019-02-05T20:20:41.022Z,97215.74
2019-02-05T20:23:13.517Z,97224.98
2019-02-05T20:25:49.037Z,97224.00
2019-02-05T20:28:21.803Z,97229.34
2019-02-05T20:30:53.023Z,97226.82
2019-02-05T20:33:27.426Z,97226.20
2019-02-05T20:36:00.546Z,97232.02
2019-02-05T20:38:32.238Z,97227.36
2019-02-05T20:41:05.512Z,97228.88
2019-02-05T20:43:38.405Z,97229.53
2019-02-05T20:46:10.582Z,97228.56
2019-02-05T20:48:41.826Z,97231.48
2019-02-05T20:51:13.656Z,97234.77
2019-02-05T20:53:45.820Z,97240.72
2019-02-05T20:56:17.045Z,97234.36
2019-02-05T20:58:52.789Z,97231.48
2019-02-05T21:01:25.276Z,97230.66
2019-02-05T21:04:01.182Z,97239.95
2019-02-05T21:06:32.217Z,97234.92
2019-02-05T21:09:04.694Z,97234.84
2019-02-05T21:11:37.822Z,97233.99
2019-02-05T21:14:11.632Z,97241.44
2019-02-05T21:16:45.744Z,97245.56
2019-02-05T21:19:19.683Z,97246.86
2019-02-05T21:21:53.660Z,97246.91
2019-02-05T21:24:27.492Z,97248.69
2019-02-05T21:26:58.726Z,97244.48
2019-02-05T21:29:32.381Z,97246.30
2019-02-05T21:32:06.629Z,97243.72
2019-02-05T21:34:38.790Z,97249.00
2019-02-05T21:37:11.760Z,97245.19
2019-02-05T21:39:43.022Z,97242.28
2019-02-05T21:42:16.752Z,97239.84
2019-02-05T21:44:50.612Z,97244.91
2019-02-05T21:47:23.416Z,97248.63
2019-02-05T21:49:58.414Z,97243.20
2019-02-05T21:52:31.442Z,97244.05
2019-02-05T21:55:02.939Z,97239.51
2019-02-05T21:57:38.139Z,97238.78
2019-02-05T22:00:26.862Z,97233.73
2019-02-05T22:03:00.582Z,97236.25
2019-02-05T22:05:32.938Z,97238.43
2019-02-05T22:08:05.307Z,97233.80
2019-02-05T22:10:38.863Z,97232.98
2019-02-05T22:13:12.865Z,97231.41
2019-02-05T22:15:45.908Z,97231.80
2019-02-05T22:18:18.026Z,97230.58
2019-02-05T22:20:49.242Z,97237.34
2019-02-05T22:23:23.019Z,97236.44
2019-02-05T22:25:58.522Z,97244.75
2019-02-05T22:28:32.737Z,97242.83
2019-02-05T22:31:06.676Z,97240.83
2019-02-05T22:33:39.105Z,97160.56
2019-02-05T22:36:13.495Z,97239.31
2019-02-05T22:38:47.139Z,97241.34
2019-02-05T22:41:21.250Z,97239.63
2019-02-05T22:43:55.154Z,97240.83
2019-02-05T22:46:28.786Z,97241.16
2019-02-05T22:49:00.035Z,97241.95
2019-02-05T22:51:32.656Z,97247.45
2019-02-05T22:54:05.201Z,97250.37
2019-02-05T22:56:39.755Z,97255.06
2019-02-05T22:59:12.173Z,97255.02
2019-02-05T23:02:06.715Z,97253.47
2019-02-05T23:05:24.330Z,97253.92
2019-02-05T23:07:59.928Z,97243.92
2019-02-05T23:11:11.586Z,97242.58
2019-02-05T23:13:45.272Z,97245.12
2019-02-05T23:16:21.220Z,97250.23
2019-02-05T23:18:53.643Z,97253.77
2019-02-05T23:21:26.904Z,97253.92
2019-02-05T23:24:01.924Z,97248.89
2019-02-05T23:26:33.415Z,97248.39
2019-02-05T23:29:05.100Z,97247.53
2019-02-05T23:31:39.162Z,97252.53
2019-02-05T23:34:13.194Z,97249.17
2019-02-05T23:36:45.048Z,97249.09
2019-02-05T23:39:16.809Z,97242.26
2019-02-05T23:41:49.254Z,97251.17
2019-02-05T23:44:20.482Z,97250.02
2019-02-05T23:46:55.238Z,97244.19
2019-02-05T23:49:31.455Z,97248.00
2019-02-05T23:52:07.033Z,97245.08
2019-02-05T23:54:39.019Z,97243.02
2019-02-05T23:57:13.759Z,97236.78
2019-02-05T23:59:47.310Z,97235.52
